Time;durP1;ratioP1;P1;durP2;ratioP2;P2;SDS_P1;SDS_P2;PMS_P1;PMS_P2;Temp;Humidity;BMP_temperature;BMP_pressure;BME280_temperature;BME280_humidity;BME280_pressure;Samples;Min_cycle;Max_cycle;Signal;HPM_P1;HPM_P2
2023/06/04 00:00:23;;;;;;;3.15;2.80;;;;;;;;;;5050254;28;20123;-72
2023/06/04 00:02:48;;;;;;;3.45;2.60;;;;;;;;;;5051139;28;20523;-73
2023/06/04 00:05:14;;;;;;;3.10;1.80;;;;;;;;;;5039921;28;20060;-72
2023/06/04 00:07:39;;;;;;;3.83;2.08;;;;;;;;;;5045589;28;20057;-72
2023/06/04 00:10:05;;;;;;;2.08;1.77;;;;;;;;;;5039722;28;20566;-73
2023/06/04 00:12:31;;;;;;;3.78;2.30;;;;;;;;;;5050257;28;20060;-73
2023/06/04 00:14:56;;;;;;;2.58;2.10;;;;;;;;;;5049552;28;20051;-73
2023/06/04 00:17:21;;;;;;;4.07;2.55;;;;;;;;;;5031021;28;20044;-72
2023/06/04 00:19:47;;;;;;;3.25;2.50;;;;;;;;;;5040520;28;20048;-73
2023/06/04 00:22:12;;;;;;;3.28;2.25;;;;;;;;;;5050829;28;20517;-73
2023/06/04 00:24:40;;;;;;;3.00;2.53;;;;;;;;;;5039546;28;20033;-72
2023/06/04 00:27:07;;;;;;;3.33;2.45;;;;;;;;;;5050018;28;20115;-72
2023/06/04 00:29:32;;;;;;;3.40;2.50;;;;;;;;;;5049689;28;20040;-73
2023/06/04 00:31:57;;;;;;;3.22;2.55;;;;;;;;;;5042449;28;20531;-72
2023/06/04 00:34:23;;;;;;;4.55;2.35;;;;;;;;;;5050055;28;20509;-72
2023/06/04 00:36:48;;;;;;;2.80;2.60;;;;;;;;;;5045557;28;20444;-73
2023/06/04 00:39:13;;;;;;;3.60;2.35;;;;;;;;;;5046132;28;20036;-73
2023/06/04 00:41:39;;;;;;;2.47;2.28;;;;;;;;;;5047494;28;20562;-73
2023/06/04 00:44:06;;;;;;;5.05;2.60;;;;;;;;;;5050381;28;20048;-72
2023/06/04 00:46:31;;;;;;;3.55;2.35;;;;;;;;;;5039859;28;20033;-73
2023/06/04 00:48:57;;;;;;;3.15;2.47;;;;;;;;;;5046294;28;20052;-73
2023/06/04 00:51:23;;;;;;;3.85;2.50;;;;;;;;;;5039859;28;20032;-73
2023/06/04 00:53:51;;;;;;;3.08;2.42;;;;;;;;;;5049759;28;20413;-73
2023/06/04 00:56:17;;;;;;;3.20;2.88;;;;;;;;;;5050280;28;20588;-73
2023/06/04 00:58:45;;;;;;;3.63;2.45;;;;;;;;;;5049793;28;20041;-73
2023/06/04 01:01:28;;;;;;;3.92;2.97;;;;;;;;;;5036373;28;20037;-72
2023/06/04 01:03:56;;;;;;;2.72;2.38;;;;;;;;;;5035767;28;20102;-73
2023/06/04 01:06:30;;;;;;;3.97;2.80;;;;;;;;;;5029994;28;20565;-73
2023/06/04 01:08:58;;;;;;;3.28;2.75;;;;;;;;;;5046196;28;20047;-73
2023/06/04 01:11:40;;;;;;;3.08;2.40;;;;;;;;;;5036516;28;20093;-73
2023/06/04 01:14:10;;;;;;;3.08;2.50;;;;;;;;;;5042789;28;20064;-73
2023/06/04 01:16:43;;;;;;;3.92;2.33;;;;;;;;;;5045666;28;20051;-73
2023/06/04 01:19:34;;;;;;;3.22;2.42;;;;;;;;;;5018259;28;20050;-73
2023/06/04 01:22:08;;;;;;;3.05;2.70;;;;;;;;;;5036157;28;20127;-73
2023/06/04 01:24:36;;;;;;;2.88;2.50;;;;;;;;;;5026184;28;20547;-72
2023/06/04 01:27:04;;;;;;;3.97;3.10;;;;;;;;;;5045454;28;20028;-73
2023/06/04 01:29:30;;;;;;;4.00;2.80;;;;;;;;;;5036623;28;20041;-73
2023/06/04 01:31:57;;;;;;;4.50;2.97;;;;;;;;;;5047435;28;22708;-72
2023/06/04 01:34:22;;;;;;;4.70;3.47;;;;;;;;;;5036922;28;20121;-73
2023/06/04 01:36:48;;;;;;;3.78;2.97;;;;;;;;;;5047791;28;20397;-72
2023/06/04 01:39:13;;;;;;;3.35;2.97;;;;;;;;;;5046385;28;20070;-72
2023/06/04 01:41:39;;;;;;;3.60;2.80;;;;;;;;;;5035670;28;20047;-72
2023/06/04 01:44:04;;;;;;;4.65;3.30;;;;;;;;;;5047054;28;20037;-72
2023/06/04 01:46:30;;;;;;;4.03;2.70;;;;;;;;;;5041859;28;20040;-72
2023/06/04 01:48:56;;;;;;;4.20;2.72;;;;;;;;;;5035877;28;20045;-73
2023/06/04 01:51:21;;;;;;;3.80;3.45;;;;;;;;;;5046557;28;20420;-73
2023/06/04 01:53:47;;;;;;;3.00;2.72;;;;;;;;;;5046707;28;20071;-73
2023/06/04 01:56:12;;;;;;;3.90;3.35;;;;;;;;;;5035244;28;20032;-73
2023/06/04 01:58:38;;;;;;;2.72;1.70;;;;;;;;;;5049607;28;20056;-72
2023/06/04 02:01:05;;;;;;;4.53;3.42;;;;;;;;;;5045797;28;20041;-73
2023/06/04 02:03:36;;;;;;;4.38;2.55;;;;;;;;;;5036287;28;20036;-73
2023/06/04 02:06:08;;;;;;;4.13;3.10;;;;;;;;;;5046004;28;20030;-72
2023/06/04 02:08:35;;;;;;;4.28;2.63;;;;;;;;;;5035138;28;20040;-72
2023/06/04 02:11:00;;;;;;;5.43;3.15;;;;;;;;;;5045728;28;20060;-72
2023/06/04 02:13:26;;;;;;;1.73;1.63;;;;;;;;;;5044623;28;20500;-73
2023/06/04 02:15:51;;;;;;;4.50;3.10;;;;;;;;;;5034653;28;20037;-72
2023/06/04 02:18:22;;;;;;;1.58;1.48;;;;;;;;;;5043023;28;20115;-72
2023/06/04 02:20:48;;;;;;;4.13;2.90;;;;;;;;;;5042494;28;20075;-72
2023/06/04 02:23:17;;;;;;;2.63;2.10;;;;;;;;;;5038287;28;20040;-73
2023/06/04 02:25:44;;;;;;;5.38;3.13;;;;;;;;;;5045847;28;20048;-72
2023/06/04 02:28:10;;;;;;;5.75;3.03;;;;;;;;;;5039137;28;20142;-72
2023/06/04 02:30:35;;;;;;;3.42;2.88;;;;;;;;;;5039578;28;20599;-72
2023/06/04 02:33:01;;;;;;;3.63;3.10;;;;;;;;;;5028402;28;20620;-73
2023/06/04 02:35:29;;;;;;;4.20;2.53;;;;;;;;;;5046042;28;20040;-72
2023/06/04 02:37:57;;;;;;;3.78;2.30;;;;;;;;;;5034806;28;20044;-72
2023/06/04 02:40:25;;;;;;;4.65;2.92;;;;;;;;;;5043624;28;20098;-72
2023/06/04 02:42:50;;;;;;;1.85;1.70;;;;;;;;;;5031824;28;20051;-73
2023/06/04 02:45:16;;;;;;;4.32;2.30;;;;;;;;;;5045151;28;20028;-72
2023/06/04 02:47:41;;;;;;;3.33;2.80;;;;;;;;;;5042914;28;20044;-72
2023/06/04 02:50:07;;;;;;;3.80;2.58;;;;;;;;;;5045668;28;20444;-72
2023/06/04 02:52:32;;;;;;;4.78;2.75;;;;;;;;;;5030662;28;20039;-71
2023/06/04 02:54:58;;;;;;;3.83;2.88;;;;;;;;;;5045181;28;20040;-72
2023/06/04 02:57:23;;;;;;;2.33;2.00;;;;;;;;;;5034696;28;20044;-72
2023/06/04 02:59:49;;;;;;;2.80;2.45;;;;;;;;;;5044263;28;20094;-72
2023/06/04 03:02:15;;;;;;;4.82;2.75;;;;;;;;;;5042695;28;20609;-72
2023/06/04 03:04:42;;;;;;;3.10;1.88;;;;;;;;;;5041933;28;20051;-72
2023/06/04 03:07:11;;;;;;;2.13;1.90;;;;;;;;;;4996597;28;20046;-73
2023/06/04 03:09:37;;;;;;;1.77;1.67;;;;;;;;;;5036306;28;20157;-72
2023/06/04 03:12:03;;;;;;;2.95;1.98;;;;;;;;;;5044213;28;20689;-72
2023/06/04 03:14:32;;;;;;;3.72;2.53;;;;;;;;;;5043845;28;20055;-73
2023/06/04 03:17:07;;;;;;;3.75;2.30;;;;;;;;;;5041763;28;20074;-73
2023/06/04 03:19:35;;;;;;;3.45;2.45;;;;;;;;;;5030259;28;21451;-74
2023/06/04 03:22:00;;;;;;;4.03;2.70;;;;;;;;;;5044477;28;20447;-74
2023/06/04 03:24:26;;;;;;;4.72;2.42;;;;;;;;;;5033546;28;20101;-73
2023/06/04 03:26:51;;;;;;;4.22;2.45;;;;;;;;;;5044857;28;20036;-73
2023/06/04 03:29:17;;;;;;;3.13;2.30;;;;;;;;;;5027968;28;20032;-73
2023/06/04 03:31:44;;;;;;;3.83;2.20;;;;;;;;;;5034614;28;20069;-73
2023/06/04 03:34:10;;;;;;;3.25;2.60;;;;;;;;;;5039029;28;20104;-73
2023/06/04 03:36:37;;;;;;;4.72;2.50;;;;;;;;;;5033508;28;20439;-73
2023/06/04 03:39:04;;;;;;;3.85;2.40;;;;;;;;;;5041232;28;20052;-73
2023/06/04 03:41:30;;;;;;;2.88;2.47;;;;;;;;;;5044652;28;20032;-73
2023/06/04 03:43:55;;;;;;;2.65;2.10;;;;;;;;;;5044524;28;20059;-73
2023/06/04 03:46:20;;;;;;;4.57;2.30;;;;;;;;;;5032935;28;20048;-73
2023/06/04 03:48:46;;;;;;;4.85;2.58;;;;;;;;;;5042148;28;20048;-72
2023/06/04 03:51:11;;;;;;;3.15;2.30;;;;;;;;;;5034607;28;20037;-72
2023/06/04 03:53:37;;;;;;;2.42;2.20;;;;;;;;;;5044622;28;20040;-72
2023/06/04 03:56:02;;;;;;;3.10;2.25;;;;;;;;;;5044086;28;20127;-72
2023/06/04 03:58:28;;;;;;;3.40;2.55;;;;;;;;;;5043219;28;20575;-73
2023/06/04 04:00:54;;;;;;;3.10;2.50;;;;;;;;;;5034040;28;20051;-73
2023/06/04 04:03:20;;;;;;;3.95;2.28;;;;;;;;;;5044417;28;20037;-73
2023/06/04 04:05:45;;;;;;;4.03;2.40;;;;;;;;;;5034426;28;20040;-73
2023/06/04 04:08:10;;;;;;;3.50;2.63;;;;;;;;;;5038064;28;20453;-73
2023/06/04 04:10:36;;;;;;;2.95;2.65;;;;;;;;;;5040032;28;20047;-73
2023/06/04 04:13:01;;;;;;;5.57;2.70;;;;;;;;;;5043403;28;20029;-73
2023/06/04 04:15:27;;;;;;;3.65;2.50;;;;;;;;;;5034236;28;20491;-73
2023/06/04 04:17:52;;;;;;;5.80;2.70;;;;;;;;;;5025129;28;20051;-73
2023/06/04 04:20:18;;;;;;;4.60;3.08;;;;;;;;;;5032265;28;20182;-73
2023/06/04 04:22:44;;;;;;;4.80;2.72;;;;;;;;;;5043301;28;20378;-73
2023/06/04 04:25:09;;;;;;;3.47;2.70;;;;;;;;;;5043920;28;20116;-73
2023/06/04 04:27:38;;;;;;;3.90;2.92;;;;;;;;;;5034866;28;20033;-74
2023/06/04 04:30:05;;;;;;;4.05;2.80;;;;;;;;;;5043130;28;20127;-74
2023/06/04 04:32:31;;;;;;;4.30;2.88;;;;;;;;;;5022797;28;20040;-73
2023/06/04 04:34:57;;;;;;;3.35;2.63;;;;;;;;;;5032699;28;20039;-74
2023/06/04 04:37:23;;;;;;;4.53;2.92;;;;;;;;;;5046564;28;20033;-73
2023/06/04 04:39:51;;;;;;;3.28;2.55;;;;;;;;;;5047421;28;20064;-73
2023/06/04 04:42:17;;;;;;;3.22;2.53;;;;;;;;;;5031341;28;20036;-72
2023/06/04 04:44:47;;;;;;;4.32;3.03;;;;;;;;;;5046879;28;20037;-72
2023/06/04 04:47:13;;;;;;;4.68;2.78;;;;;;;;;;5034961;28;20037;-73
2023/06/04 04:49:38;;;;;;;4.35;3.13;;;;;;;;;;5046773;28;20667;-74
2023/06/04 04:52:03;;;;;;;2.78;2.53;;;;;;;;;;5054432;28;20044;-74
2023/06/04 04:54:29;;;;;;;5.35;2.85;;;;;;;;;;5053459;28;20403;-73
2023/06/04 04:56:54;;;;;;;4.18;2.90;;;;;;;;;;5049669;28;20028;-74
2023/06/04 04:59:20;;;;;;;5.10;2.90;;;;;;;;;;5060593;28;20079;-74
2023/06/04 05:01:45;;;;;;;4.70;2.90;;;;;;;;;;5045512;28;20044;-74
2023/06/04 05:04:11;;;;;;;3.45;2.63;;;;;;;;;;5034680;28;20443;-73
2023/06/04 05:06:37;;;;;;;4.05;2.85;;;;;;;;;;5062082;28;20034;-74
2023/06/04 05:09:03;;;;;;;3.33;2.90;;;;;;;;;;5055574;28;20737;-73
2023/06/04 05:11:29;;;;;;;4.03;2.85;;;;;;;;;;5059079;28;20040;-73
2023/06/04 05:13:54;;;;;;;4.10;3.70;;;;;;;;;;5055979;28;20495;-72
2023/06/04 05:16:20;;;;;;;4.57;2.67;;;;;;;;;;5044888;28;20086;-73
2023/06/04 05:18:46;;;;;;;6.03;2.90;;;;;;;;;;5056978;28;20109;-73
2023/06/04 05:21:14;;;;;;;3.67;3.03;;;;;;;;;;5054638;28;20071;-73
2023/06/04 05:23:39;;;;;;;8.43;3.08;;;;;;;;;;5042055;28;20032;-73
2023/06/04 05:26:05;;;;;;;4.00;2.97;;;;;;;;;;5044504;28;20714;-73
2023/06/04 05:28:34;;;;;;;5.90;3.00;;;;;;;;;;5042061;28;20041;-73
2023/06/04 05:31:00;;;;;;;5.45;3.05;;;;;;;;;;5008485;28;20068;-73
2023/06/04 05:33:26;;;;;;;7.22;3.20;;;;;;;;;;5046532;28;20501;-73
2023/06/04 05:35:53;;;;;;;3.33;2.60;;;;;;;;;;5046082;28;20036;-73
2023/06/04 05:38:19;;;;;;;3.38;2.50;;;;;;;;;;5034740;28;21960;-73
2023/06/04 05:40:45;;;;;;;6.20;3.17;;;;;;;;;;5038648;28;20048;-73
2023/06/04 05:43:10;;;;;;;3.53;2.42;;;;;;;;;;5014636;28;20172;-73
2023/06/04 05:45:36;;;;;;;4.00;2.90;;;;;;;;;;5044815;28;20040;-73
2023/06/04 05:48:01;;;;;;;3.80;2.75;;;;;;;;;;5039450;28;20721;-73
2023/06/04 05:50:27;;;;;;;3.10;2.63;;;;;;;;;;5044049;28;20813;-73
2023/06/04 05:52:53;;;;;;;3.78;2.50;;;;;;;;;;5017030;28;20048;-74
2023/06/04 05:55:19;;;;;;;4.07;2.50;;;;;;;;;;5044626;28;20036;-73
2023/06/04 05:57:44;;;;;;;4.95;2.75;;;;;;;;;;5017131;28;20110;-72
2023/06/04 06:00:10;;;;;;;3.33;2.80;;;;;;;;;;5040252;28;20067;-73
2023/06/04 06:02:37;;;;;;;3.28;2.28;;;;;;;;;;5044391;28;20098;-73
2023/06/04 06:05:03;;;;;;;4.05;2.42;;;;;;;;;;5034478;28;20122;-73
2023/06/04 06:07:28;;;;;;;2.88;2.63;;;;;;;;;;5043546;28;20048;-73
2023/06/04 06:09:54;;;;;;;4.22;2.60;;;;;;;;;;5040011;28;20079;-73
2023/06/04 06:12:19;;;;;;;3.33;2.63;;;;;;;;;;5040584;28;20141;-73
2023/06/04 06:14:45;;;;;;;3.85;2.30;;;;;;;;;;5053050;28;20051;-73
2023/06/04 06:17:10;;;;;;;3.80;2.40;;;;;;;;;;5046953;28;20055;-73
2023/06/04 06:19:37;;;;;;;3.92;2.30;;;;;;;;;;5024515;28;20044;-73
2023/06/04 06:22:03;;;;;;;3.03;2.08;;;;;;;;;;5045683;28;20036;-73
2023/06/04 06:24:29;;;;;;;2.30;2.00;;;;;;;;;;5044186;28;20095;-73
2023/06/04 06:26:54;;;;;;;2.10;1.90;;;;;;;;;;5033478;28;20045;-72
2023/06/04 06:29:20;;;;;;;5.28;2.20;;;;;;;;;;5043420;28;20044;-73
2023/06/04 06:31:46;;;;;;;3.63;2.17;;;;;;;;;;5039001;28;20051;-73
2023/06/04 06:34:11;;;;;;;3.75;2.10;;;;;;;;;;5016975;28;20036;-73
2023/06/04 06:36:37;;;;;;;2.95;2.13;;;;;;;;;;5041830;28;20036;-73
2023/06/04 06:39:03;;;;;;;3.80;2.38;;;;;;;;;;5033152;28;20492;-75
2023/06/04 06:41:30;;;;;;;3.60;2.38;;;;;;;;;;5041461;28;20694;-73
2023/06/04 06:43:56;;;;;;;2.53;2.17;;;;;;;;;;5045236;28;20571;-73
2023/06/04 06:46:22;;;;;;;3.90;2.35;;;;;;;;;;5042957;28;20129;-73
2023/06/04 06:48:48;;;;;;;3.47;2.40;;;;;;;;;;5032359;28;20098;-73
2023/06/04 06:51:14;;;;;;;4.00;2.13;;;;;;;;;;5043826;28;20036;-74
2023/06/04 06:53:39;;;;;;;3.75;2.10;;;;;;;;;;5032348;28;20032;-74
2023/06/04 06:56:05;;;;;;;3.75;2.20;;;;;;;;;;5043283;28;20036;-75
2023/06/04 06:58:30;;;;;;;3.10;2.13;;;;;;;;;;5037928;28;20163;-73
2023/06/04 07:00:56;;;;;;;2.95;1.98;;;;;;;;;;5034669;28;20036;-74
2023/06/04 07:03:22;;;;;;;3.67;1.90;;;;;;;;;;5043150;28;20519;-73
2023/06/04 07:05:47;;;;;;;1.92;1.70;;;;;;;;;;5041535;28;20756;-74
2023/06/04 07:08:13;;;;;;;3.90;1.90;;;;;;;;;;5031620;28;20677;-73
2023/06/04 07:10:38;;;;;;;2.08;1.80;;;;;;;;;;5043235;28;20056;-74
2023/06/04 07:13:04;;;;;;;2.65;1.70;;;;;;;;;;5042927;28;20036;-74
2023/06/04 07:15:29;;;;;;;1.88;1.65;;;;;;;;;;5029554;28;20577;-74
2023/06/04 07:17:55;;;;;;;4.85;2.30;;;;;;;;;;5043175;28;20044;-74
2023/06/04 07:20:20;;;;;;;2.97;2.00;;;;;;;;;;5039090;28;20047;-74
2023/06/04 07:22:45;;;;;;;2.22;1.75;;;;;;;;;;5032669;28;20043;-74
2023/06/04 07:25:11;;;;;;;1.95;1.50;;;;;;;;;;5043276;28;20119;-74
2023/06/04 07:27:37;;;;;;;3.97;1.88;;;;;;;;;;5046275;28;20119;-74
2023/06/04 07:30:02;;;;;;;2.92;1.70;;;;;;;;;;5032308;28;20048;-74
2023/06/04 07:32:28;;;;;;;4.28;1.60;;;;;;;;;;5043150;28;20127;-75
2023/06/04 07:34:53;;;;;;;1.70;1.50;;;;;;;;;;5037942;28;20999;-75
2023/06/04 07:37:18;;;;;;;2.55;1.88;;;;;;;;;;5032040;28;20642;-74
2023/06/04 07:39:44;;;;;;;3.45;1.70;;;;;;;;;;5027992;28;20047;-75
2023/06/04 07:42:09;;;;;;;3.67;1.58;;;;;;;;;;5042527;28;20044;-75
2023/06/04 07:44:36;;;;;;;2.30;1.55;;;;;;;;;;5033450;28;20047;-75
2023/06/04 07:47:02;;;;;;;3.58;1.60;;;;;;;;;;5041828;28;20040;-75
2023/06/04 07:49:27;;;;;;;2.60;1.60;;;;;;;;;;5031245;28;20044;-75
2023/06/04 07:51:53;;;;;;;2.33;1.65;;;;;;;;;;5025766;28;20044;-75
2023/06/04 07:54:18;;;;;;;2.22;1.33;;;;;;;;;;5025424;28;20045;-74
2023/06/04 07:56:43;;;;;;;1.45;1.35;;;;;;;;;;5043348;28;20116;-74
2023/06/04 07:59:09;;;;;;;2.20;1.30;;;;;;;;;;5031709;28;20071;-74
2023/06/04 08:01:34;;;;;;;1.60;1.30;;;;;;;;;;5039521;28;20037;-74
2023/06/04 08:04:00;;;;;;;2.20;1.30;;;;;;;;;;5031623;28;20087;-74
2023/06/04 08:06:26;;;;;;;1.92;1.20;;;;;;;;;;5043438;28;20055;-74
2023/06/04 08:08:52;;;;;;;1.85;1.20;;;;;;;;;;5025767;28;20041;-74
2023/06/04 08:11:17;;;;;;;3.63;1.40;;;;;;;;;;5045255;28;20043;-74
2023/06/04 08:13:43;;;;;;;1.88;1.20;;;;;;;;;;5019733;28;20037;-74
2023/06/04 08:16:10;;;;;;;2.40;1.50;;;;;;;;;;5046819;28;20056;-74
2023/06/04 08:18:39;;;;;;;2.47;1.27;;;;;;;;;;5034812;28;20509;-74
2023/06/04 08:21:05;;;;;;;1.48;1.10;;;;;;;;;;5044021;28;20052;-73
2023/06/04 08:23:31;;;;;;;1.75;1.23;;;;;;;;;;5046035;28;20067;-74
2023/06/04 08:25:56;;;;;;;1.40;1.30;;;;;;;;;;5036111;28;20479;-73
2023/06/04 08:28:22;;;;;;;2.05;1.27;;;;;;;;;;5047262;28;20140;-73
2023/06/04 08:30:47;;;;;;;1.85;1.30;;;;;;;;;;5046172;28;20044;-74
2023/06/04 08:33:13;;;;;;;3.03;1.30;;;;;;;;;;5033332;28;20071;-74
2023/06/04 08:35:38;;;;;;;1.75;1.23;;;;;;;;;;5047320;28;20032;-74
2023/06/04 08:38:03;;;;;;;2.28;1.00;;;;;;;;;;5046150;28;20709;-74
2023/06/04 08:40:29;;;;;;;1.40;1.00;;;;;;;;;;5032974;28;20040;-74
2023/06/04 08:42:59;;;;;;;2.00;1.48;;;;;;;;;;5041405;28;20121;-74
2023/06/04 08:45:25;;;;;;;2.42;1.13;;;;;;;;;;5036463;28;20123;-74
2023/06/04 08:47:51;;;;;;;1.48;1.15;;;;;;;;;;5046013;28;20070;-74
2023/06/04 08:50:19;;;;;;;2.60;1.20;;;;;;;;;;5052040;28;20032;-74
2023/06/04 08:52:44;;;;;;;1.65;1.30;;;;;;;;;;5048057;28;20050;-73
2023/06/04 08:55:16;;;;;;;1.58;1.15;;;;;;;;;;5036882;28;20036;-74
2023/06/04 08:57:41;;;;;;;1.90;1.20;;;;;;;;;;5044532;28;20424;-74
2023/06/04 09:00:08;;;;;;;1.40;1.30;;;;;;;;;;5036645;28;20041;-74
2023/06/04 09:02:39;;;;;;;1.48;1.23;;;;;;;;;;5047308;28;20037;-73
2023/06/04 09:05:09;;;;;;;2.53;0.95;;;;;;;;;;5030486;28;20036;-73
2023/06/04 09:07:40;;;;;;;2.33;1.30;;;;;;;;;;5035750;28;20059;-74
2023/06/04 09:10:09;;;;;;;1.15;0.93;;;;;;;;;;5044176;28;20684;-74
2023/06/04 09:12:37;;;;;;;1.10;0.98;;;;;;;;;;5036186;28;20044;-73
2023/06/04 09:15:03;;;;;;;1.92;1.15;;;;;;;;;;5030550;28;20051;-74
2023/06/04 09:17:29;;;;;;;1.20;1.08;;;;;;;;;;5043701;28;20420;-74
2023/06/04 09:19:54;;;;;;;1.70;1.10;;;;;;;;;;5040308;28;20040;-73
2023/06/04 09:22:31;;;;;;;2.28;1.40;;;;;;;;;;5058303;28;20516;-74
2023/06/04 09:24:56;;;;;;;1.92;1.50;;;;;;;;;;5048325;28;20077;-75
2023/06/04 09:27:22;;;;;;;3.03;1.52;;;;;;;;;;5054054;28;20036;-74
2023/06/04 09:29:53;;;;;;;1.50;1.10;;;;;;;;;;5059392;28;20051;-76
2023/06/04 09:32:29;;;;;;;2.00;1.02;;;;;;;;;;5047566;28;20040;-74
2023/06/04 09:34:57;;;;;;;2.42;1.08;;;;;;;;;;5058562;28;20105;-74
2023/06/04 09:37:22;;;;;;;1.55;1.05;;;;;;;;;;5045749;28;20033;-74
2023/06/04 09:39:56;;;;;;;1.08;1.05;;;;;;;;;;5056833;28;20028;-75
2023/06/04 09:42:23;;;;;;;2.28;0.90;;;;;;;;;;5044957;28;20627;-75
2023/06/04 09:44:48;;;;;;;0.98;0.93;;;;;;;;;;5050871;28;20598;-75
2023/06/04 09:47:15;;;;;;;1.30;1.02;;;;;;;;;;5052618;28;20040;-75
2023/06/04 09:49:44;;;;;;;1.40;1.10;;;;;;;;;;5045332;28;20063;-75
2023/06/04 09:52:10;;;;;;;1.60;1.20;;;;;;;;;;5054300;28;20036;-75
2023/06/04 09:54:41;;;;;;;1.25;1.10;;;;;;;;;;5060384;28;20145;-75
2023/06/04 09:57:18;;;;;;;1.58;0.93;;;;;;;;;;5025377;28;20073;-75
2023/06/04 09:59:49;;;;;;;1.15;1.05;;;;;;;;;;5053383;28;20094;-75
2023/06/04 10:02:21;;;;;;;1.35;1.10;;;;;;;;;;5041295;28;20173;-75
2023/06/04 10:04:54;;;;;;;1.38;1.10;;;;;;;;;;5055276;28;20044;-75
2023/06/04 10:07:20;;;;;;;1.13;1.02;;;;;;;;;;5050361;28;20036;-75
2023/06/04 10:09:47;;;;;;;1.77;1.30;;;;;;;;;;5046117;28;20036;-75
2023/06/04 10:12:19;;;;;;;1.20;1.10;;;;;;;;;;5051048;28;20071;-76
2023/06/04 10:14:54;;;;;;;1.33;0.90;;;;;;;;;;5030125;28;20048;-76
2023/06/04 10:17:22;;;;;;;1.20;1.10;;;;;;;;;;5050260;28;20086;-75
2023/06/04 10:19:51;;;;;;;1.27;1.00;;;;;;;;;;5032059;28;20054;-75
2023/06/04 10:22:18;;;;;;;1.57;1.00;;;;;;;;;;5030319;28;20057;-75
2023/06/04 10:24:44;;;;;;;1.30;1.10;;;;;;;;;;5060949;28;20512;-74
2023/06/04 10:27:12;;;;;;;1.08;0.95;;;;;;;;;;5041784;28;20043;-74
2023/06/04 10:29:39;;;;;;;3.47;1.00;;;;;;;;;;5056211;28;20055;-74
2023/06/04 10:32:05;;;;;;;1.23;1.10;;;;;;;;;;5047922;28;20043;-74
2023/06/04 10:34:30;;;;;;;1.58;1.15;;;;;;;;;;5031644;28;20036;-74
2023/06/04 10:36:56;;;;;;;4.25;1.08;;;;;;;;;;5051740;28;20085;-74
2023/06/04 10:39:29;;;;;;;1.02;0.88;;;;;;;;;;5047941;28;20036;-74
2023/06/04 10:42:12;;;;;;;1.88;1.00;;;;;;;;;;5016080;28;20048;-74
2023/06/04 10:44:46;;;;;;;3.53;1.10;;;;;;;;;;5043773;28;20119;-76
2023/06/04 10:47:22;;;;;;;2.75;1.05;;;;;;;;;;5015448;28;20607;-74
2023/06/04 10:49:49;;;;;;;1.42;0.90;;;;;;;;;;5046818;28;20117;-76
2023/06/04 10:52:14;;;;;;;1.90;1.10;;;;;;;;;;5042467;28;20036;-74
2023/06/04 10:54:42;;;;;;;2.03;1.15;;;;;;;;;;5050152;28;20036;-74
2023/06/04 10:57:15;;;;;;;1.13;0.90;;;;;;;;;;5046711;28;20527;-77
2023/06/04 10:59:41;;;;;;;2.42;1.00;;;;;;;;;;5022163;28;20084;-74
2023/06/04 11:02:09;;;;;;;2.10;1.20;;;;;;;;;;5048717;28;20041;-76
2023/06/04 11:04:37;;;;;;;1.65;1.08;;;;;;;;;;5037429;28;20060;-74
2023/06/04 11:07:10;;;;;;;1.60;1.15;;;;;;;;;;5027080;28;20485;-74
2023/06/04 11:09:37;;;;;;;1.42;1.10;;;;;;;;;;5046677;28;20045;-74
2023/06/04 11:12:05;;;;;;;1.70;0.70;;;;;;;;;;5043460;28;20097;-74
2023/06/04 11:14:30;;;;;;;0.73;0.70;;;;;;;;;;5052923;28;20078;-73
2023/06/04 11:16:56;;;;;;;2.05;1.10;;;;;;;;;;5033862;28;20672;-74
2023/06/04 11:19:22;;;;;;;2.10;1.10;;;;;;;;;;5045554;28;20090;-74
2023/06/04 11:21:48;;;;;;;1.00;0.90;;;;;;;;;;5050271;28;20064;-74
2023/06/04 11:24:13;;;;;;;2.40;0.88;;;;;;;;;;5053000;28;20093;-74
2023/06/04 11:26:39;;;;;;;0.73;0.73;;;;;;;;;;5044466;28;20123;-73
2023/06/04 11:29:11;;;;;;;1.13;1.02;;;;;;;;;;5033492;28;20047;-74
2023/06/04 11:31:46;;;;;;;1.42;0.98;;;;;;;;;;5040872;28;20500;-73
2023/06/04 11:34:24;;;;;;;1.38;1.10;;;;;;;;;;5030400;28;20032;-73
2023/06/04 11:36:52;;;;;;;1.40;1.13;;;;;;;;;;5032224;28;20105;-73
2023/06/04 11:39:18;;;;;;;1.45;1.10;;;;;;;;;;5047919;28;20092;-74
2023/06/04 11:41:45;;;;;;;1.20;1.05;;;;;;;;;;5037781;28;20039;-74
2023/06/04 11:44:12;;;;;;;1.75;1.02;;;;;;;;;;5051966;28;20048;-74
2023/06/04 11:46:43;;;;;;;2.05;1.20;;;;;;;;;;5049113;28;20420;-74
2023/06/04 11:49:13;;;;;;;1.20;1.02;;;;;;;;;;5050998;28;20052;-73
2023/06/04 11:51:38;;;;;;;1.65;1.00;;;;;;;;;;5023117;28;20160;-74
2023/06/04 11:54:04;;;;;;;2.35;1.15;;;;;;;;;;5053299;28;20201;-74
2023/06/04 11:56:29;;;;;;;1.90;1.00;;;;;;;;;;5041201;28;20050;-74
2023/06/04 11:58:55;;;;;;;1.02;0.95;;;;;;;;;;5052225;28;20075;-76
2023/06/04 12:01:22;;;;;;;1.33;1.00;;;;;;;;;;5049732;28;20048;-73
2023/06/04 12:03:48;;;;;;;1.45;0.85;;;;;;;;;;5038612;28;20547;-73
2023/06/04 12:06:21;;;;;;;1.13;0.88;;;;;;;;;;5046791;28;20037;-74
2023/06/04 12:08:53;;;;;;;1.60;0.95;;;;;;;;;;5033495;28;20101;-73
2023/06/04 12:11:31;;;;;;;1.27;0.80;;;;;;;;;;5047186;28;21098;-73
2023/06/04 12:14:03;;;;;;;2.28;0.90;;;;;;;;;;5049427;28;20083;-73
2023/06/04 12:16:28;;;;;;;1.20;1.10;;;;;;;;;;5037231;28;20750;-73
2023/06/04 12:19:07;;;;;;;1.08;0.93;;;;;;;;;;5047223;28;20036;-73
2023/06/04 12:21:32;;;;;;;3.35;1.20;;;;;;;;;;5010408;28;20050;-73
2023/06/04 12:24:11;;;;;;;1.83;0.90;;;;;;;;;;5045997;28;20467;-73
2023/06/04 12:26:40;;;;;;;2.47;1.00;;;;;;;;;;5020513;28;20036;-73
2023/06/04 12:29:10;;;;;;;1.80;0.90;;;;;;;;;;5044017;28;20483;-73
2023/06/04 12:31:36;;;;;;;2.65;1.00;;;;;;;;;;5036203;28;20040;-73
2023/06/04 12:34:01;;;;;;;1.13;1.02;;;;;;;;;;5049261;28;20070;-73
2023/06/04 12:36:28;;;;;;;2.05;1.00;;;;;;;;;;5045770;28;20036;-74
2023/06/04 12:38:58;;;;;;;1.00;0.88;;;;;;;;;;5049199;28;20052;-73
2023/06/04 12:41:23;;;;;;;1.15;0.88;;;;;;;;;;5014012;28;20561;-74
2023/06/04 12:43:49;;;;;;;1.23;1.05;;;;;;;;;;5049260;28;20048;-73
2023/06/04 12:46:14;;;;;;;0.90;0.90;;;;;;;;;;5039492;28;20508;-73
2023/06/04 12:48:40;;;;;;;1.20;1.10;;;;;;;;;;5048108;28;20045;-73
2023/06/04 12:51:08;;;;;;;2.20;1.00;;;;;;;;;;5047975;28;20048;-73
2023/06/04 12:53:33;;;;;;;1.15;1.00;;;;;;;;;;5025619;28;20520;-74
2023/06/04 12:55:59;;;;;;;2.50;1.17;;;;;;;;;;5047635;28;20039;-73
2023/06/04 12:58:24;;;;;;;2.50;1.00;;;;;;;;;;5049825;28;20457;-73
2023/06/04 13:00:50;;;;;;;1.70;1.02;;;;;;;;;;5038366;28;20047;-74
2023/06/04 13:03:15;;;;;;;1.33;1.10;;;;;;;;;;5052543;28;20044;-73
2023/06/04 13:05:40;;;;;;;2.03;0.98;;;;;;;;;;5055799;28;20476;-73
2023/06/04 13:08:06;;;;;;;0.90;0.90;;;;;;;;;;5050667;28;20464;-73
2023/06/04 13:10:31;;;;;;;1.50;1.23;;;;;;;;;;5055752;28;20040;-74
2023/06/04 13:12:56;;;;;;;1.52;0.98;;;;;;;;;;5059098;28;20416;-76
2023/06/04 13:15:22;;;;;;;2.53;1.10;;;;;;;;;;5049893;28;20039;-73
2023/06/04 13:17:47;;;;;;;3.45;1.20;;;;;;;;;;5053398;28;20101;-72
2023/06/04 13:20:13;;;;;;;2.38;1.27;;;;;;;;;;5015347;28;20039;-72
2023/06/04 13:22:38;;;;;;;1.60;1.05;;;;;;;;;;5024586;28;20119;-73
2023/06/04 13:25:04;;;;;;;1.25;1.15;;;;;;;;;;5055141;28;20036;-76
2023/06/04 13:27:29;;;;;;;1.42;1.20;;;;;;;;;;5043331;28;20064;-74
2023/06/04 13:29:55;;;;;;;2.97;1.30;;;;;;;;;;5043153;28;20044;-73
2023/06/04 13:32:20;;;;;;;1.38;1.08;;;;;;;;;;5054208;28;20378;-73
2023/06/04 13:34:45;;;;;;;1.58;1.20;;;;;;;;;;5060540;28;20605;-73
2023/06/04 13:37:12;;;;;;;1.08;0.95;;;;;;;;;;5048047;28;20040;-73
2023/06/04 13:39:38;;;;;;;1.70;1.05;;;;;;;;;;5051167;28;20041;-73
2023/06/04 13:42:03;;;;;;;2.78;0.90;;;;;;;;;;5043039;28;20106;-73
2023/06/04 13:44:28;;;;;;;2.13;1.15;;;;;;;;;;5037189;28;20040;-73
2023/06/04 13:46:54;;;;;;;1.25;1.10;;;;;;;;;;5054564;28;20040;-73
2023/06/04 13:49:20;;;;;;;3.13;0.98;;;;;;;;;;5054051;28;20408;-73
2023/06/04 13:51:45;;;;;;;1.60;1.10;;;;;;;;;;5045102;28;20114;-73
2023/06/04 13:54:11;;;;;;;1.45;1.15;;;;;;;;;;5054664;28;20032;-73
2023/06/04 13:56:36;;;;;;;1.17;1.10;;;;;;;;;;5040769;28;20059;-72
2023/06/04 13:59:01;;;;;;;1.20;1.00;;;;;;;;;;5049056;28;20134;-73
2023/06/04 14:01:27;;;;;;;1.38;1.05;;;;;;;;;;5049231;28;20064;-73
2023/06/04 14:03:53;;;;;;;1.80;1.10;;;;;;;;;;5051120;28;20044;-73
2023/06/04 14:06:18;;;;;;;2.65;1.10;;;;;;;;;;5043070;28;20049;-73
2023/06/04 14:08:43;;;;;;;1.27;1.17;;;;;;;;;;5053295;28;20119;-74
2023/06/04 14:11:10;;;;;;;1.23;1.10;;;;;;;;;;5044539;28;20059;-74
2023/06/04 14:13:37;;;;;;;2.40;1.10;;;;;;;;;;5048837;28;20040;-73
2023/06/04 14:16:02;;;;;;;0.93;0.80;;;;;;;;;;5048855;28;20135;-73
2023/06/04 14:18:27;;;;;;;0.93;0.90;;;;;;;;;;5036924;28;20119;-73
2023/06/04 14:20:53;;;;;;;1.27;1.10;;;;;;;;;;5047911;28;20443;-73
2023/06/04 14:23:18;;;;;;;1.45;0.90;;;;;;;;;;5049612;28;20037;-73
2023/06/04 14:25:43;;;;;;;5.13;4.40;;;;;;;;;;5037696;28;20036;-73
2023/06/04 14:28:09;;;;;;;1.02;0.93;;;;;;;;;;5048309;28;20445;-73
2023/06/04 14:30:35;;;;;;;1.58;1.00;;;;;;;;;;5041597;28;20047;-73
2023/06/04 14:33:00;;;;;;;1.20;1.10;;;;;;;;;;5038960;28;20037;-72
2023/06/04 14:35:25;;;;;;;1.25;0.98;;;;;;;;;;5056861;28;20042;-73
2023/06/04 14:37:51;;;;;;;11.75;1.63;;;;;;;;;;5053885;28;20529;-73
2023/06/04 14:40:16;;;;;;;1.42;1.10;;;;;;;;;;5040955;28;20028;-73